createdAt,value
2017-08-28T00:00:30.468Z,11.83
2017-08-28T00:02:58.602Z,12.70
2017-08-28T00:05:26.880Z,8.63
2017-08-28T00:07:55.017Z,9.63
2017-08-28T00:10:23.176Z,9.60
2017-08-28T00:12:51.352Z,9.60
2017-08-28T00:15:19.503Z,15.30
2017-08-28T00:17:47.650Z,8.20
2017-08-28T00:20:15.817Z,8.77
2017-08-28T00:22:43.950Z,9.47
2017-08-28T00:25:12.113Z,7.63
2017-08-28T00:27:40.249Z,6.53
2017-08-28T00:30:08.383Z,8.63
2017-08-28T00:32:36.563Z,12.93
2017-08-28T00:35:04.689Z,9.30
2017-08-28T00:37:32.835Z,8.80
2017-08-28T00:40:01.114Z,14.10
2017-08-28T00:42:29.258Z,8.60
2017-08-28T00:44:57.411Z,10.50
2017-08-28T00:47:25.592Z,11.33
2017-08-28T00:49:53.747Z,6.60
2017-08-28T00:52:21.913Z,9.97
2017-08-28T00:54:50.048Z,8.13
2017-08-28T00:57:18.201Z,6.33
2017-08-28T00:59:46.319Z,9.03
2017-08-28T01:02:14.577Z,8.83
2017-08-28T01:04:42.714Z,8.40
2017-08-28T01:07:10.845Z,7.70
2017-08-28T01:09:39.015Z,7.33
2017-08-28T01:12:07.137Z,9.53
2017-08-28T01:14:35.297Z,10.33
2017-08-28T01:17:03.425Z,13.23
2017-08-28T01:19:31.591Z,8.20
2017-08-28T01:21:59.728Z,7.40
2017-08-28T01:24:27.989Z,6.97
2017-08-28T01:26:56.142Z,7.90
2017-08-28T01:29:24.283Z,10.07
2017-08-28T01:31:52.450Z,7.03
2017-08-28T01:34:20.573Z,8.13
2017-08-28T01:36:48.711Z,8.50
2017-08-28T01:39:16.875Z,9.33
2017-08-28T01:41:45.012Z,12.40
2017-08-28T01:44:13.165Z,7.57
2017-08-28T01:46:41.288Z,7.77
2017-08-28T01:49:09.440Z,7.27
2017-08-28T01:51:37.583Z,7.60
2017-08-28T01:54:05.747Z,8.97
2017-08-28T01:56:33.882Z,15.00
2017-08-28T01:59:02.036Z,7.67
2017-08-28T02:01:30.217Z,9.37
2017-08-28T02:03:58.362Z,7.73
2017-08-28T02:06:26.522Z,9.77
2017-08-28T02:08:54.671Z,11.03
2017-08-28T02:11:22.837Z,11.63
2017-08-28T02:13:50.978Z,11.83
2017-08-28T02:16:19.105Z,7.20
2017-08-28T02:18:47.267Z,8.93
2017-08-28T02:21:15.407Z,6.63
2017-08-28T02:23:43.616Z,11.57
2017-08-28T02:26:11.751Z,7.60
2017-08-28T02:28:39.890Z,9.17
2017-08-28T02:31:08.055Z,9.30
2017-08-28T02:33:36.189Z,17.63
2017-08-28T02:36:04.352Z,9.83
2017-08-28T02:38:32.484Z,8.33
2017-08-28T02:41:00.618Z,10.73
2017-08-28T02:43:28.784Z,9.63
2017-08-28T02:45:56.909Z,9.00
2017-08-28T02:48:25.043Z,7.17
2017-08-28T02:50:53.199Z,7.00
2017-08-28T02:53:21.329Z,6.70
2017-08-28T02:55:49.495Z,6.73
2017-08-28T02:58:17.626Z,10.20
2017-08-28T03:00:45.767Z,8.13
2017-08-28T03:03:13.935Z,5.90
2017-08-28T03:05:42.061Z,7.33
2017-08-28T03:08:10.199Z,7.73
2017-08-28T03:10:38.376Z,12.10
2017-08-28T03:13:06.520Z,8.07
2017-08-28T03:15:34.657Z,6.80
2017-08-28T03:18:02.822Z,9.20
2017-08-28T03:20:30.949Z,9.80
2017-08-28T03:22:59.109Z,8.73
2017-08-28T03:25:27.250Z,6.83
2017-08-28T03:27:55.433Z,7.67
2017-08-28T03:30:23.562Z,8.10
2017-08-28T03:32:51.715Z,11.03
2017-08-28T03:35:19.906Z,10.37
2017-08-28T03:37:48.107Z,7.77
2017-08-28T03:40:16.268Z,10.37
2017-08-28T03:42:44.439Z,8.93
2017-08-28T03:45:12.568Z,7.40
2017-08-28T03:47:40.727Z,8.17
2017-08-28T03:50:08.857Z,7.00
2017-08-28T03:52:37.139Z,7.80
2017-08-28T03:55:05.266Z,8.70
2017-08-28T03:57:33.414Z,10.70
2017-08-28T04:00:01.587Z,6.63
2017-08-28T04:02:29.746Z,8.73
2017-08-28T04:04:57.900Z,7.60
2017-08-28T04:07:26.037Z,9.20
2017-08-28T04:09:54.178Z,7.73
2017-08-28T04:12:22.360Z,18.70
2017-08-28T04:14:50.509Z,8.80
2017-08-28T04:17:18.675Z,7.13
2017-08-28T04:19:46.835Z,9.40
2017-08-28T04:22:15.031Z,6.70
2017-08-28T04:24:43.158Z,9.23
2017-08-28T04:27:11.287Z,9.00
2017-08-28T04:29:39.461Z,8.40
2017-08-28T04:32:07.586Z,5.57
2017-08-28T04:34:35.741Z,10.70
2017-08-28T04:37:03.864Z,8.33
2017-08-28T04:39:32.125Z,9.30
2017-08-28T04:42:00.418Z,10.17
2017-08-28T04:44:28.568Z,10.40
2017-08-28T04:46:56.702Z,14.60
2017-08-28T04:49:24.874Z,6.90
2017-08-28T04:51:53.018Z,9.60
2017-08-28T04:54:21.179Z,10.57
2017-08-28T04:56:49.328Z,7.60
2017-08-28T04:59:17.478Z,11.30
2017-08-28T05:01:45.741Z,5.80
2017-08-28T05:04:13.887Z,5.77
2017-08-28T05:06:42.018Z,10.13
2017-08-28T05:09:10.191Z,12.80
2017-08-28T05:11:38.315Z,8.83
2017-08-28T05:14:06.472Z,10.17
2017-08-28T05:16:34.643Z,10.13
2017-08-28T05:19:02.768Z,7.47
2017-08-28T05:21:30.967Z,7.93
2017-08-28T05:23:59.099Z,8.90
2017-08-28T05:26:27.263Z,8.67
2017-08-28T05:28:55.396Z,6.87
2017-08-28T05:31:23.580Z,5.30
2017-08-28T05:33:51.853Z,8.40
2017-08-28T05:36:19.985Z,8.03
2017-08-28T05:38:48.150Z,7.33
2017-08-28T05:41:16.273Z,6.40
2017-08-28T05:43:44.438Z,7.63
2017-08-28T05:46:12.574Z,10.27
2017-08-28T05:48:40.740Z,5.90
2017-08-28T05:51:08.880Z,9.57
2017-08-28T05:53:37.009Z,6.10
2017-08-28T05:56:05.183Z,7.20
2017-08-28T05:58:33.334Z,6.20
2017-08-28T06:01:01.475Z,8.80
2017-08-28T06:03:29.638Z,10.07
2017-08-28T06:05:57.768Z,14.87
2017-08-28T06:08:25.899Z,10.70
2017-08-28T06:10:54.084Z,8.27
2017-08-28T06:13:22.269Z,15.33
2017-08-28T06:15:50.483Z,12.83
2017-08-28T06:18:18.689Z,11.23
2017-08-28T06:20:46.813Z,13.43
2017-08-28T06:23:14.986Z,15.63
2017-08-28T06:25:43.128Z,13.87
2017-08-28T06:28:11.306Z,12.43
2017-08-28T06:30:39.433Z,9.33
2017-08-28T06:33:07.565Z,10.30
2017-08-28T06:35:35.735Z,11.40
2017-08-28T06:38:03.887Z,14.97
2017-08-28T06:40:32.063Z,10.00
2017-08-28T06:43:00.213Z,21.50
2017-08-28T06:45:28.382Z,19.73
2017-08-28T06:47:56.505Z,24.00
2017-08-28T06:50:24.679Z,11.90
2017-08-28T06:52:52.824Z,11.20
2017-08-28T06:55:20.986Z,20.97
2017-08-28T06:57:49.114Z,13.33
2017-08-28T07:00:17.273Z,14.87
2017-08-28T07:02:45.407Z,11.93
2017-08-28T07:05:13.565Z,15.90
2017-08-28T07:07:41.723Z,16.57
2017-08-28T07:10:09.896Z,12.20
2017-08-28T07:12:38.018Z,10.83
2017-08-28T07:15:06.187Z,13.97
2017-08-28T07:17:34.319Z,15.20
2017-08-28T07:20:02.495Z,16.43
2017-08-28T07:22:30.637Z,15.93
2017-08-28T07:24:58.801Z,22.73
2017-08-28T07:27:26.946Z,18.93
2017-08-28T07:29:55.116Z,13.40
2017-08-28T07:32:23.260Z,17.57
2017-08-28T07:34:51.425Z,13.40
2017-08-28T07:37:19.570Z,20.27
2017-08-28T07:39:47.740Z,17.87
2017-08-28T07:42:15.887Z,17.97
2017-08-28T07:44:44.045Z,13.93
2017-08-28T07:47:12.190Z,13.83
2017-08-28T07:49:40.356Z,17.40
2017-08-28T07:52:08.494Z,11.10
2017-08-28T07:54:36.762Z,15.40
2017-08-28T07:57:04.897Z,9.20
2017-08-28T07:59:33.048Z,15.90
2017-08-28T08:02:01.220Z,16.73
2017-08-28T08:04:29.356Z,12.97
2017-08-28T08:06:57.522Z,9.97
2017-08-28T08:09:25.654Z,16.60
2017-08-28T08:11:53.913Z,10.90
2017-08-28T08:14:22.076Z,17.43
2017-08-28T08:16:50.245Z,8.87
2017-08-28T08:19:18.382Z,8.93
2017-08-28T08:21:46.570Z,9.17
2017-08-28T08:24:14.705Z,15.77
2017-08-28T08:26:42.864Z,11.20
2017-08-28T08:29:11.003Z,9.20
2017-08-28T08:31:39.250Z,9.70
2017-08-28T08:34:12.943Z,6.20
2017-08-28T08:36:41.132Z,9.67
2017-08-28T08:39:09.260Z,5.37
2017-08-28T08:41:37.441Z,8.03
2017-08-28T08:44:05.587Z,9.23
2017-08-28T08:46:33.745Z,12.73
2017-08-28T08:49:01.910Z,11.33
2017-08-28T08:51:30.070Z,14.40
2017-08-28T08:53:58.217Z,7.00
2017-08-28T08:56:26.384Z,11.33
2017-08-28T08:58:54.529Z,11.87
2017-08-28T09:01:22.760Z,12.10
2017-08-28T09:03:50.894Z,8.73
2017-08-28T09:06:19.068Z,14.40
2017-08-28T09:08:47.207Z,12.20
2017-08-28T09:11:15.370Z,12.63
2017-08-28T09:13:43.505Z,14.33
2017-08-28T09:16:11.672Z,15.37
2017-08-28T09:18:39.812Z,16.90
2017-08-28T09:21:07.963Z,21.67
2017-08-28T09:23:36.118Z,19.13
2017-08-28T09:26:04.271Z,29.70
2017-08-28T09:28:32.434Z,23.40
2017-08-28T09:31:00.552Z,30.70
2017-08-28T09:33:29.674Z,39.30
2017-08-28T09:35:57.815Z,28.70
2017-08-28T09:38:25.986Z,14.50
2017-08-28T09:40:54.118Z,18.17
2017-08-28T09:43:22.311Z,22.50
2017-08-28T09:45:50.451Z,31.00
2017-08-28T09:48:18.619Z,24.50
2017-08-28T09:50:46.751Z,15.33
2017-08-28T09:53:14.931Z,22.63
2017-08-28T09:55:43.064Z,33.40
2017-08-28T09:58:11.235Z,16.60
2017-08-28T10:00:39.373Z,32.60
2017-08-28T10:03:07.549Z,28.20
2017-08-28T10:05:35.702Z,16.23
2017-08-28T10:08:03.870Z,24.53
2017-08-28T10:10:32.004Z,21.40
2017-08-28T10:13:00.164Z,38.90
2017-08-28T10:15:28.289Z,41.60
2017-08-28T10:17:56.448Z,40.80
2017-08-28T10:20:24.593Z,33.13
2017-08-28T10:22:52.759Z,22.93
2017-08-28T10:25:20.901Z,18.90
2017-08-28T10:27:49.071Z,23.20
2017-08-28T10:30:17.210Z,23.93
2017-08-28T10:32:45.371Z,43.90
2017-08-28T10:35:13.510Z,37.70
2017-08-28T10:37:41.670Z,39.63
2017-08-28T10:40:09.817Z,49.17
2017-08-28T10:42:38.016Z,32.10
2017-08-28T10:45:06.171Z,44.87
2017-08-28T10:47:34.351Z,39.93
2017-08-28T10:50:02.531Z,27.70
2017-08-28T10:52:30.684Z,23.00
2017-08-28T10:54:58.845Z,31.77
2017-08-28T10:57:26.979Z,26.20
2017-08-28T10:59:55.158Z,37.17
2017-08-28T11:02:23.294Z,31.30
2017-08-28T11:04:51.476Z,19.03
2017-08-28T11:07:19.607Z,22.57
2017-08-28T11:09:47.768Z,26.97
2017-08-28T11:12:15.922Z,27.60
2017-08-28T11:14:44.108Z,23.53
2017-08-28T11:17:12.237Z,21.70
2017-08-28T11:19:40.386Z,21.90
2017-08-28T11:22:08.551Z,16.57
2017-08-28T11:24:36.695Z,26.50
2017-08-28T11:27:05.737Z,21.70
2017-08-28T11:29:33.880Z,25.90
2017-08-28T11:32:02.036Z,27.07
2017-08-28T11:34:30.210Z,20.67
2017-08-28T11:36:58.358Z,23.30
2017-08-28T11:39:26.522Z,14.03
2017-08-28T11:41:54.808Z,24.50
2017-08-28T11:44:22.973Z,19.70
2017-08-28T11:46:51.106Z,23.90
2017-08-28T11:49:19.262Z,12.97
2017-08-28T11:51:47.405Z,22.83
2017-08-28T11:54:15.525Z,13.97
2017-08-28T11:56:43.685Z,15.03
2017-08-28T11:59:11.827Z,22.73
2017-08-28T12:01:39.962Z,18.07
2017-08-28T12:04:08.134Z,10.90
2017-08-28T12:06:36.265Z,19.53
2017-08-28T12:09:04.405Z,10.40
2017-08-28T12:11:32.557Z,9.67
2017-08-28T12:14:00.679Z,8.53
2017-08-28T12:16:28.837Z,12.07
2017-08-28T12:18:56.986Z,15.90
2017-08-28T12:21:25.162Z,13.30
2017-08-28T12:23:53.286Z,14.10
2017-08-28T12:26:21.429Z,10.17
2017-08-28T12:28:49.610Z,19.87
2017-08-28T12:31:17.734Z,8.37
2017-08-28T12:33:46.011Z,12.83
2017-08-28T12:36:14.146Z,12.07
2017-08-28T12:38:42.299Z,14.53
2017-08-28T12:41:10.473Z,14.70
2017-08-28T12:43:38.602Z,9.20
2017-08-28T12:46:06.777Z,8.63
2017-08-28T12:48:34.917Z,12.20
2017-08-28T12:51:03.087Z,16.80
2017-08-28T12:53:31.236Z,14.37
2017-08-28T12:55:59.375Z,8.67
2017-08-28T12:58:27.543Z,10.60
2017-08-28T13:00:55.669Z,9.57
2017-08-28T13:03:23.835Z,9.07
2017-08-28T13:05:51.964Z,10.37
2017-08-28T13:08:20.217Z,11.33
2017-08-28T13:10:48.359Z,7.37
2017-08-28T13:13:16.486Z,12.23
2017-08-28T13:15:44.654Z,13.03
2017-08-28T13:18:12.787Z,7.90
2017-08-28T13:20:40.985Z,11.47
2017-08-28T13:23:09.136Z,12.90
2017-08-28T13:25:37.270Z,9.10
2017-08-28T13:28:05.456Z,10.13
2017-08-28T13:30:33.599Z,14.00
2017-08-28T13:33:01.764Z,11.67
2017-08-28T13:35:29.926Z,7.60
2017-08-28T13:37:58.062Z,12.47
2017-08-28T13:40:26.200Z,9.97
2017-08-28T13:42:54.374Z,15.23
2017-08-28T13:45:22.533Z,11.97
2017-08-28T13:47:50.707Z,14.07
2017-08-28T13:50:18.842Z,10.70
2017-08-28T13:52:47.005Z,12.27
2017-08-28T13:55:15.147Z,12.93
2017-08-28T13:57:43.312Z,11.80
2017-08-28T14:00:11.460Z,16.80
2017-08-28T14:02:39.616Z,15.13
2017-08-28T14:05:07.748Z,15.57
2017-08-28T14:07:35.921Z,13.33
2017-08-28T14:10:04.059Z,8.03
2017-08-28T14:12:32.239Z,11.90
2017-08-28T14:15:00.379Z,17.03
2017-08-28T14:17:28.544Z,12.10
2017-08-28T14:19:56.673Z,7.20
2017-08-28T14:22:24.909Z,9.40
2017-08-28T14:24:53.033Z,10.87
2017-08-28T14:27:21.194Z,8.90
2017-08-28T14:29:49.332Z,14.30
2017-08-28T14:32:17.796Z,10.40
2017-08-28T14:34:45.939Z,10.47
2017-08-28T14:37:14.143Z,10.20
2017-08-28T14:39:42.270Z,7.50
2017-08-28T14:42:10.437Z,15.27
2017-08-28T14:44:38.579Z,9.37
2017-08-28T14:47:06.733Z,14.57
2017-08-28T14:49:34.870Z,9.43
2017-08-28T14:52:03.033Z,11.70
2017-08-28T14:54:31.167Z,8.90
2017-08-28T14:56:59.346Z,12.47
2017-08-28T14:59:27.478Z,10.23
2017-08-28T15:01:55.629Z,9.80
2017-08-28T15:04:23.765Z,16.10
2017-08-28T15:06:51.901Z,10.27
2017-08-28T15:09:20.075Z,9.80
2017-08-28T15:11:48.207Z,8.33
2017-08-28T15:14:16.371Z,13.10
2017-08-28T15:16:44.524Z,15.13
2017-08-28T15:19:12.704Z,12.23
2017-08-28T15:21:40.852Z,10.47
2017-08-28T15:24:09.053Z,12.40
2017-08-28T15:26:37.188Z,11.50
2017-08-28T15:29:05.360Z,14.40
2017-08-28T15:31:33.541Z,14.10
2017-08-28T15:34:01.703Z,9.80
2017-08-28T15:36:29.843Z,11.80
2017-08-28T15:38:58.005Z,16.33
2017-08-28T15:41:26.147Z,19.80
2017-08-28T15:43:54.320Z,11.83
2017-08-28T15:46:22.460Z,12.93
2017-08-28T15:48:50.629Z,17.07
2017-08-28T15:51:18.761Z,14.03
2017-08-28T15:53:46.921Z,21.90
2017-08-28T15:56:15.059Z,11.20
2017-08-28T15:58:43.221Z,13.80
2017-08-28T16:01:11.349Z,11.47
2017-08-28T16:03:39.509Z,17.40
2017-08-28T16:06:07.667Z,16.67
2017-08-28T16:08:35.897Z,16.47
2017-08-28T16:11:04.041Z,17.00
2017-08-28T16:13:32.214Z,12.57
2017-08-28T16:16:00.359Z,12.50
2017-08-28T16:18:28.529Z,14.33
2017-08-28T16:20:56.680Z,24.27
2017-08-28T16:23:24.854Z,14.37
2017-08-28T16:25:52.999Z,14.03
2017-08-28T16:28:21.183Z,12.37
2017-08-28T16:30:49.322Z,17.40
2017-08-28T16:33:17.600Z,19.93
2017-08-28T16:35:45.730Z,11.07
2017-08-28T16:38:13.871Z,13.60
2017-08-28T16:40:42.037Z,19.83
2017-08-28T16:43:10.169Z,19.17
2017-08-28T16:45:38.371Z,11.37
2017-08-28T16:48:06.501Z,13.90
2017-08-28T16:50:34.679Z,12.13
2017-08-28T16:53:02.810Z,13.10
2017-08-28T16:55:30.980Z,15.53
2017-08-28T16:57:59.101Z,16.43
2017-08-28T17:00:27.278Z,11.93
2017-08-28T17:02:55.414Z,6.47
2017-08-28T17:05:23.583Z,9.03
2017-08-28T17:07:51.718Z,12.80
2017-08-28T17:10:19.886Z,9.20
2017-08-28T17:12:48.013Z,14.30
2017-08-28T17:15:16.183Z,12.10
2017-08-28T17:17:44.329Z,15.67
2017-08-28T17:20:12.487Z,10.90
2017-08-28T17:22:46.470Z,11.23
2017-08-28T17:25:14.633Z,13.30
2017-08-28T17:27:42.777Z,12.40
2017-08-28T17:30:11.211Z,12.17
2017-08-28T17:32:39.345Z,9.40
2017-08-28T17:35:07.512Z,9.73
2017-08-28T17:37:35.646Z,9.17
2017-08-28T17:40:03.814Z,9.80
2017-08-28T17:42:31.947Z,11.10
2017-08-28T17:45:00.130Z,15.83
2017-08-28T17:47:28.260Z,11.57
2017-08-28T17:49:56.431Z,9.30
2017-08-28T17:52:24.563Z,15.30
2017-08-28T17:54:52.736Z,11.83
2017-08-28T17:57:20.879Z,10.37
2017-08-28T17:59:49.039Z,11.70
2017-08-28T18:02:17.184Z,10.70
2017-08-28T18:04:45.340Z,10.10
2017-08-28T18:07:13.475Z,8.70
2017-08-28T18:09:41.613Z,12.13
2017-08-28T18:12:09.777Z,11.20
2017-08-28T18:14:37.929Z,11.23
2017-08-28T18:17:06.109Z,12.27
2017-08-28T18:19:34.250Z,16.10
2017-08-28T18:22:02.423Z,11.77
2017-08-28T18:24:30.554Z,15.33
2017-08-28T18:26:58.714Z,14.60
2017-08-28T18:29:26.882Z,10.50
2017-08-28T18:31:55.056Z,11.37
2017-08-28T18:34:23.199Z,15.43
2017-08-28T18:36:51.366Z,12.10
2017-08-28T18:39:19.498Z,11.40
2017-08-28T18:41:47.663Z,11.80
2017-08-28T18:44:15.789Z,11.70
2017-08-28T18:46:43.953Z,16.47
2017-08-28T18:49:12.096Z,13.07
2017-08-28T18:51:40.237Z,11.90
2017-08-28T18:54:08.419Z,13.43
2017-08-28T18:56:36.601Z,13.67
2017-08-28T18:59:04.751Z,12.77
2017-08-28T19:01:32.935Z,13.73
2017-08-28T19:04:01.077Z,15.20
2017-08-28T19:06:29.255Z,14.23
2017-08-28T19:08:57.466Z,15.20
2017-08-28T19:11:25.643Z,19.17
2017-08-28T19:13:53.804Z,16.13
2017-08-28T19:16:21.961Z,16.97
2017-08-28T19:18:50.108Z,19.07
2017-08-28T19:21:18.288Z,18.10
2017-08-28T19:23:46.447Z,19.47
2017-08-28T19:26:14.621Z,17.20
2017-08-28T19:28:42.763Z,21.00
2017-08-28T19:31:10.939Z,20.70
2017-08-28T19:33:43.250Z,18.33
2017-08-28T19:36:11.432Z,17.30
2017-08-28T19:38:39.575Z,19.73
2017-08-28T19:41:07.719Z,17.80
2017-08-28T19:43:35.891Z,27.27
2017-08-28T19:46:04.089Z,13.53
2017-08-28T19:48:32.263Z,21.57
2017-08-28T19:51:00.458Z,21.77
2017-08-28T19:53:28.707Z,20.50
2017-08-28T19:55:56.883Z,19.50
2017-08-28T19:58:25.062Z,20.00
2017-08-28T20:00:53.212Z,15.23
2017-08-28T20:03:21.395Z,17.47
2017-08-28T20:05:49.541Z,20.67
2017-08-28T20:08:17.717Z,18.40
2017-08-28T20:10:45.863Z,20.43
2017-08-28T20:13:14.033Z,15.30
2017-08-28T20:15:42.169Z,16.13
2017-08-28T20:18:10.340Z,19.13
2017-08-28T20:20:38.472Z,18.43
2017-08-28T20:23:06.637Z,27.17
2017-08-28T20:25:34.776Z,17.73
2017-08-28T20:28:02.946Z,20.50
2017-08-28T20:30:31.078Z,18.07
2017-08-28T20:33:00.042Z,19.97
2017-08-28T20:35:28.191Z,24.60
2017-08-28T20:37:56.357Z,20.90
2017-08-28T20:40:24.489Z,25.37
2017-08-28T20:42:54.799Z,21.33
2017-08-28T20:45:22.942Z,20.17
2017-08-28T20:47:51.100Z,20.10
2017-08-28T20:50:19.233Z,20.57
2017-08-28T20:52:47.395Z,21.30
2017-08-28T20:55:15.531Z,20.77
2017-08-28T20:57:43.697Z,25.73
2017-08-28T21:00:11.838Z,20.00
2017-08-28T21:02:40.106Z,15.20
2017-08-28T21:05:08.253Z,17.50
2017-08-28T21:07:36.398Z,16.93
2017-08-28T21:10:04.570Z,15.00
2017-08-28T21:12:32.720Z,23.17
2017-08-28T21:15:00.888Z,18.37
2017-08-28T21:17:29.059Z,20.80
2017-08-28T21:19:57.238Z,19.20
2017-08-28T21:22:25.387Z,17.57
2017-08-28T21:24:53.546Z,19.77
2017-08-28T21:27:21.681Z,18.70
2017-08-28T21:29:49.849Z,15.77
2017-08-28T21:32:17.980Z,27.07
2017-08-28T21:34:46.151Z,19.30
2017-08-28T21:37:14.300Z,20.77
2017-08-28T21:39:42.475Z,15.40
2017-08-28T21:42:10.618Z,32.27
2017-08-28T21:44:38.789Z,17.80
2017-08-28T21:47:06.921Z,24.23
2017-08-28T21:49:35.091Z,19.20
2017-08-28T21:52:03.243Z,18.90
2017-08-28T21:54:31.422Z,18.13
2017-08-28T21:56:59.558Z,21.20
2017-08-28T21:59:27.726Z,18.80
2017-08-28T22:01:55.867Z,16.57
2017-08-28T22:04:24.040Z,17.70
2017-08-28T22:06:52.178Z,20.27
2017-08-28T22:09:20.358Z,13.97
2017-08-28T22:11:48.487Z,19.90
2017-08-28T22:14:16.662Z,20.60
2017-08-28T22:16:44.803Z,14.70
2017-08-28T22:19:12.965Z,20.80
2017-08-28T22:21:41.115Z,18.17
2017-08-28T22:24:09.298Z,14.77
2017-08-28T22:26:37.435Z,12.00
2017-08-28T22:29:05.607Z,17.20
2017-08-28T22:31:33.733Z,16.47
2017-08-28T22:34:02.014Z,15.50
2017-08-28T22:36:30.144Z,12.73
2017-08-28T22:38:58.282Z,15.37
2017-08-28T22:41:26.450Z,17.00
2017-08-28T22:43:54.581Z,18.60
2017-08-28T22:46:22.847Z,19.30
2017-08-28T22:48:50.990Z,17.33
2017-08-28T22:51:19.158Z,16.30
2017-08-28T22:53:47.298Z,23.33
2017-08-28T22:56:15.467Z,17.13
2017-08-28T22:58:43.592Z,16.83
2017-08-28T23:01:11.763Z,16.73
2017-08-28T23:03:39.908Z,17.83
2017-08-28T23:06:08.066Z,18.10
2017-08-28T23:08:36.204Z,18.80
2017-08-28T23:11:04.377Z,15.87
2017-08-28T23:13:32.538Z,20.60
2017-08-28T23:16:00.711Z,22.17
2017-08-28T23:18:28.851Z,18.77
2017-08-28T23:20:57.023Z,20.10
2017-08-28T23:23:25.162Z,18.20
2017-08-28T23:25:53.472Z,13.33
2017-08-28T23:28:21.648Z,18.20
2017-08-28T23:30:49.790Z,16.03
2017-08-28T23:33:17.958Z,19.90
2017-08-28T23:35:46.085Z,23.40
2017-08-28T23:38:14.246Z,16.43
2017-08-28T23:40:42.372Z,14.57
2017-08-28T23:43:10.518Z,14.53
2017-08-28T23:45:38.685Z,18.03
2017-08-28T23:48:06.825Z,15.60
2017-08-28T23:50:35.001Z,11.50
2017-08-28T23:53:03.147Z,18.03
2017-08-28T23:55:31.327Z,17.70
2017-08-28T23:57:59.462Z,13.50
